Time;durP1;ratioP1;P1;durP2;ratioP2;P2;SDS_P1;SDS_P2;PMS_P1;PMS_P2;Temp;Humidity;BMP_temperature;BMP_pressure;BME280_temperature;BME280_humidity;BME280_pressure;Samples;Min_cycle;Max_cycle;Signal;HPM_P1;HPM_P2
2021/12/22 00:01:28;;;;;;;43.97;21.42;;;;;;;;;;5055358;28;20044;-76
2021/12/22 00:03:55;;;;;;;40.67;19.13;;;;;;;;;;5074148;28;20600;-77
2021/12/22 00:06:24;;;;;;;46.00;21.10;;;;;;;;;;5055027;28;20048;-81
2021/12/22 00:08:50;;;;;;;43.60;20.08;;;;;;;;;;5072887;28;20052;-76
2021/12/22 00:11:17;;;;;;;46.13;22.33;;;;;;;;;;5055810;28;20040;-77
2021/12/22 00:13:43;;;;;;;39.72;18.73;;;;;;;;;;5056055;28;20045;-76
2021/12/22 00:16:09;;;;;;;39.25;19.63;;;;;;;;;;5071747;28;20049;-82
2021/12/22 00:18:36;;;;;;;41.22;19.98;;;;;;;;;;5054650;28;20040;-82
2021/12/22 00:21:02;;;;;;;36.70;19.02;;;;;;;;;;5070991;28;20032;-76
2021/12/22 00:23:28;;;;;;;37.22;18.75;;;;;;;;;;5054744;28;20123;-76
2021/12/22 00:25:55;;;;;;;32.92;17.60;;;;;;;;;;5070950;28;20083;-82
2021/12/22 00:28:21;;;;;;;41.78;19.25;;;;;;;;;;5071891;28;20055;-76
2021/12/22 00:30:49;;;;;;;36.35;18.38;;;;;;;;;;5072815;28;20101;-76
2021/12/22 00:33:15;;;;;;;39.97;19.75;;;;;;;;;;5055104;28;20051;-77
2021/12/22 00:35:45;;;;;;;36.47;18.42;;;;;;;;;;5073436;28;20041;-76
2021/12/22 00:38:21;;;;;;;33.47;18.35;;;;;;;;;;5072209;28;20116;-77
2021/12/22 00:40:48;;;;;;;40.30;18.73;;;;;;;;;;5071449;28;20037;-83
2021/12/22 00:43:15;;;;;;;40.80;19.23;;;;;;;;;;5070970;28;20441;-82
2021/12/22 00:45:41;;;;;;;44.08;19.77;;;;;;;;;;5070404;28;20045;-83
2021/12/22 00:48:09;;;;;;;41.58;19.60;;;;;;;;;;5053797;28;20495;-83
2021/12/22 00:50:36;;;;;;;42.30;19.42;;;;;;;;;;5070728;28;20037;-82
2021/12/22 00:53:02;;;;;;;40.63;18.70;;;;;;;;;;5037351;28;20048;-83
2021/12/22 00:55:28;;;;;;;45.10;19.77;;;;;;;;;;5071535;28;20487;-83
2021/12/22 00:57:55;;;;;;;47.17;20.92;;;;;;;;;;5070545;28;20137;-83
2021/12/22 01:00:23;;;;;;;39.95;21.17;;;;;;;;;;5054127;28;20560;-76
2021/12/22 01:02:49;;;;;;;49.92;20.88;;;;;;;;;;5055522;28;20068;-76
2021/12/22 01:05:16;;;;;;;50.63;21.13;;;;;;;;;;5071558;28;20116;-76
2021/12/22 01:07:43;;;;;;;43.05;19.55;;;;;;;;;;5055479;28;20127;-76
2021/12/22 01:10:09;;;;;;;42.67;19.42;;;;;;;;;;5069905;28;20048;-83
2021/12/22 01:12:35;;;;;;;45.10;20.52;;;;;;;;;;5053571;28;20049;-83
2021/12/22 01:15:02;;;;;;;47.03;21.00;;;;;;;;;;5069724;28;20072;-83
2021/12/22 01:17:36;;;;;;;42.67;20.60;;;;;;;;;;5071861;28;20090;-76
2021/12/22 01:20:09;;;;;;;46.33;21.00;;;;;;;;;;5071991;28;20123;-75
2021/12/22 01:22:47;;;;;;;46.03;20.52;;;;;;;;;;5071770;28;20048;-76
2021/12/22 01:25:16;;;;;;;49.67;21.88;;;;;;;;;;5071030;28;20113;-76
2021/12/22 01:27:44;;;;;;;44.75;20.98;;;;;;;;;;5071695;28;20512;-76
2021/12/22 01:30:12;;;;;;;51.63;22.40;;;;;;;;;;5054246;28;20072;-76
2021/12/22 01:32:38;;;;;;;49.22;21.58;;;;;;;;;;5071253;28;20044;-76
2021/12/22 01:35:06;;;;;;;45.10;20.92;;;;;;;;;;5068589;28;20374;-83
2021/12/22 01:37:33;;;;;;;43.15;20.27;;;;;;;;;;5049034;28;20037;-83
2021/12/22 01:40:03;;;;;;;48.65;21.33;;;;;;;;;;5052490;28;20041;-76
2021/12/22 01:42:29;;;;;;;49.08;20.60;;;;;;;;;;5051486;28;20078;-76
2021/12/22 01:45:13;;;;;;;41.75;20.08;;;;;;;;;;5052329;28;20045;-83
2021/12/22 01:50:39;;;;;;;47.25;19.85;;;;;;;;;;5050828;28;20041;-76
2021/12/22 01:53:07;;;;;;;43.95;20.05;;;;;;;;;;5051328;28;20045;-76
2021/12/22 01:55:37;;;;;;;45.65;20.00;;;;;;;;;;5050116;28;20481;-84
2021/12/22 01:58:03;;;;;;;42.28;18.60;;;;;;;;;;5066612;28;20056;-77
2021/12/22 02:00:30;;;;;;;41.97;18.65;;;;;;;;;;5050223;28;20057;-84
2021/12/22 02:02:57;;;;;;;50.80;21.00;;;;;;;;;;5048914;28;20040;-83
2021/12/22 02:05:24;;;;;;;39.75;18.92;;;;;;;;;;5049228;28;20047;-84
2021/12/22 02:07:55;;;;;;;48.50;20.50;;;;;;;;;;5065903;28;20396;-84
2021/12/22 02:10:30;;;;;;;47.05;20.83;;;;;;;;;;5050628;28;20075;-76
2021/12/22 02:12:58;;;;;;;43.78;20.55;;;;;;;;;;5067445;28;20484;-84
2021/12/22 02:15:28;;;;;;;46.10;20.85;;;;;;;;;;5066762;28;20037;-76
2021/12/22 02:17:57;;;;;;;51.22;21.00;;;;;;;;;;5050953;28;20041;-76
2021/12/22 02:20:23;;;;;;;53.28;21.52;;;;;;;;;;5034363;28;20045;-76
2021/12/22 02:22:53;;;;;;;49.22;21.02;;;;;;;;;;5034401;28;20456;-76
2021/12/22 02:25:29;;;;;;;51.40;21.52;;;;;;;;;;5049080;28;20497;-83
2021/12/22 02:27:55;;;;;;;51.78;21.13;;;;;;;;;;5049339;28;20106;-84
2021/12/22 02:30:25;;;;;;;50.72;22.20;;;;;;;;;;5032203;28;20049;-84
2021/12/22 02:35:28;;;;;;;54.22;21.20;;;;;;;;;;5083403;28;20053;-84
2021/12/22 02:37:54;;;;;;;50.95;22.67;;;;;;;;;;5049545;28;20120;-83
2021/12/22 02:40:27;;;;;;;51.00;22.35;;;;;;;;;;5065671;28;20033;-76
2021/12/22 02:43:18;;;;;;;53.47;22.02;;;;;;;;;;5050219;28;20492;-76
2021/12/22 02:45:44;;;;;;;50.67;21.75;;;;;;;;;;5051641;28;20114;-76
2021/12/22 02:48:10;;;;;;;52.00;21.25;;;;;;;;;;5049868;28;20092;-84
2021/12/22 02:50:36;;;;;;;56.10;22.02;;;;;;;;;;5065844;28;20124;-84
2021/12/22 02:53:13;;;;;;;46.45;21.17;;;;;;;;;;5048870;28;20040;-84
2021/12/22 02:55:46;;;;;;;45.75;20.05;;;;;;;;;;5050180;28;20064;-84
2021/12/22 02:58:21;;;;;;;52.72;20.95;;;;;;;;;;5048614;28;20078;-76
2021/12/22 03:06:12;;;;;;;45.70;20.40;;;;;;;;;;5070905;28;20084;-84
2021/12/22 03:08:39;;;;;;;46.95;19.40;;;;;;;;;;5072972;28;20442;-84
2021/12/22 03:11:05;;;;;;;42.85;20.10;;;;;;;;;;5055634;28;20101;-84
2021/12/22 03:13:32;;;;;;;48.53;20.52;;;;;;;;;;5072646;28;20130;-84
2021/12/22 03:15:58;;;;;;;46.83;20.90;;;;;;;;;;5072511;28;20040;-84
2021/12/22 03:18:24;;;;;;;44.63;20.45;;;;;;;;;;5105903;28;20045;-84
2021/12/22 03:20:59;;;;;;;43.55;20.08;;;;;;;;;;5072008;28;20090;-84
2021/12/22 03:23:25;;;;;;;46.15;20.55;;;;;;;;;;5072791;28;20377;-84
2021/12/22 03:25:52;;;;;;;45.50;20.63;;;;;;;;;;5073575;28;20047;-76
2021/12/22 03:28:19;;;;;;;53.00;20.65;;;;;;;;;;5073412;28;20052;-84
2021/12/22 03:30:45;;;;;;;50.00;21.25;;;;;;;;;;5072116;28;20413;-76
2021/12/22 03:33:11;;;;;;;43.13;19.83;;;;;;;;;;5073522;28;20110;-76
2021/12/22 03:35:39;;;;;;;47.33;20.52;;;;;;;;;;5073475;28;20066;-76
2021/12/22 03:38:05;;;;;;;47.60;20.80;;;;;;;;;;5073780;28;20036;-76
2021/12/22 03:40:31;;;;;;;46.00;20.98;;;;;;;;;;5055806;28;20044;-84
2021/12/22 03:42:58;;;;;;;46.50;21.05;;;;;;;;;;5071656;28;20044;-84
2021/12/22 03:45:24;;;;;;;50.20;20.52;;;;;;;;;;5054410;28;20052;-84
2021/12/22 03:47:50;;;;;;;46.65;21.40;;;;;;;;;;5071886;28;20057;-76
2021/12/22 03:50:18;;;;;;;46.78;20.63;;;;;;;;;;5073234;28;20438;-76
2021/12/22 03:52:45;;;;;;;46.80;19.77;;;;;;;;;;5073283;28;20040;-76
2021/12/22 03:55:11;;;;;;;49.40;21.25;;;;;;;;;;5072610;28;20041;-76
2021/12/22 03:57:38;;;;;;;48.30;20.77;;;;;;;;;;5072223;28;20049;-76
2021/12/22 04:00:05;;;;;;;45.22;19.67;;;;;;;;;;5072983;28;20050;-75
2021/12/22 04:02:32;;;;;;;46.85;21.48;;;;;;;;;;5072434;28;20052;-75
2021/12/22 04:04:58;;;;;;;45.85;20.88;;;;;;;;;;5056767;28;20044;-75
2021/12/22 04:07:24;;;;;;;49.83;20.63;;;;;;;;;;5072043;28;20048;-84
2021/12/22 04:09:52;;;;;;;48.15;21.38;;;;;;;;;;5054336;28;20044;-85
2021/12/22 04:12:18;;;;;;;48.50;20.35;;;;;;;;;;5053795;28;20447;-84
2021/12/22 04:14:44;;;;;;;44.05;19.25;;;;;;;;;;5070520;28;20036;-85
2021/12/22 04:17:10;;;;;;;49.22;21.35;;;;;;;;;;5070735;28;20503;-85
2021/12/22 04:19:36;;;;;;;45.03;20.65;;;;;;;;;;5053674;28;20040;-85
2021/12/22 04:22:04;;;;;;;46.28;20.33;;;;;;;;;;5070620;28;20040;-84
2021/12/22 04:24:31;;;;;;;46.65;20.27;;;;;;;;;;5071872;28;20488;-76
2021/12/22 04:26:57;;;;;;;46.40;19.83;;;;;;;;;;5073820;28;20045;-75
2021/12/22 04:29:23;;;;;;;43.38;19.60;;;;;;;;;;5072535;28;20403;-76
2021/12/22 04:31:49;;;;;;;45.33;20.00;;;;;;;;;;5055839;28;20079;-76
2021/12/22 04:34:15;;;;;;;44.55;19.02;;;;;;;;;;5070174;28;20255;-85
2021/12/22 04:36:41;;;;;;;47.83;20.13;;;;;;;;;;5070261;28;20051;-85
2021/12/22 04:39:09;;;;;;;46.25;20.08;;;;;;;;;;5070419;28;20049;-85
2021/12/22 04:41:35;;;;;;;44.03;19.10;;;;;;;;;;5072556;28;20574;-75
2021/12/22 04:44:02;;;;;;;45.97;20.48;;;;;;;;;;5072621;28;20041;-75
2021/12/22 04:46:28;;;;;;;46.05;19.50;;;;;;;;;;5070948;28;20036;-75
2021/12/22 04:48:54;;;;;;;47.80;17.88;;;;;;;;;;5071889;28;20613;-84
2021/12/22 04:51:29;;;;;;;46.05;19.83;;;;;;;;;;5072181;28;20541;-75
2021/12/22 04:54:06;;;;;;;47.38;20.27;;;;;;;;;;5072541;28;20072;-75
2021/12/22 04:56:32;;;;;;;44.63;19.30;;;;;;;;;;5055092;28;20515;-75
2021/12/22 04:58:58;;;;;;;48.15;19.08;;;;;;;;;;5073452;28;20056;-75
2021/12/22 05:01:25;;;;;;;42.90;19.50;;;;;;;;;;5069367;28;20048;-84
2021/12/22 05:03:51;;;;;;;40.53;18.50;;;;;;;;;;5070294;28;20472;-74
2021/12/22 05:06:17;;;;;;;41.47;18.60;;;;;;;;;;5070697;28;20051;-75
2021/12/22 05:08:43;;;;;;;44.88;18.85;;;;;;;;;;5055479;28;20500;-84
2021/12/22 05:11:09;;;;;;;43.17;19.20;;;;;;;;;;5070220;28;20048;-76
2021/12/22 05:13:36;;;;;;;39.22;18.45;;;;;;;;;;5071929;28;20032;-75
2021/12/22 05:16:04;;;;;;;42.08;19.40;;;;;;;;;;5055379;28;20102;-75
2021/12/22 05:21:15;;;;;;;47.10;19.25;;;;;;;;;;5071536;28;20044;-75
2021/12/22 05:23:41;;;;;;;44.88;19.00;;;;;;;;;;5071280;28;20048;-75
2021/12/22 05:26:07;;;;;;;40.83;18.70;;;;;;;;;;5070850;28;20101;-75
2021/12/22 05:28:34;;;;;;;40.97;17.70;;;;;;;;;;5071063;28;20442;-75
2021/12/22 05:31:00;;;;;;;45.47;18.85;;;;;;;;;;5071466;28;20040;-75
2021/12/22 05:33:26;;;;;;;42.83;18.83;;;;;;;;;;5071433;28;20484;-75
2021/12/22 05:35:52;;;;;;;42.55;18.88;;;;;;;;;;5070919;28;20056;-84
2021/12/22 05:38:18;;;;;;;45.83;17.52;;;;;;;;;;5068953;28;20060;-85
2021/12/22 05:40:44;;;;;;;51.78;19.90;;;;;;;;;;5053213;28;20045;-84
2021/12/22 05:43:10;;;;;;;45.30;19.15;;;;;;;;;;5069493;28;20568;-84
2021/12/22 05:45:36;;;;;;;39.53;17.42;;;;;;;;;;5053274;28;20139;-75
2021/12/22 05:48:03;;;;;;;43.50;18.27;;;;;;;;;;5053055;28;20467;-84
2021/12/22 05:50:29;;;;;;;41.78;17.17;;;;;;;;;;5068957;28;20071;-84
2021/12/22 05:52:55;;;;;;;45.70;18.52;;;;;;;;;;5069254;28;20131;-84
2021/12/22 05:55:22;;;;;;;41.05;17.83;;;;;;;;;;5068773;28;20079;-85
2021/12/22 05:57:48;;;;;;;41.65;17.27;;;;;;;;;;5068547;28;20055;-84
2021/12/22 06:00:14;;;;;;;41.47;18.38;;;;;;;;;;5068516;28;20102;-84
2021/12/22 06:02:41;;;;;;;41.03;16.67;;;;;;;;;;5068670;28;20115;-85
2021/12/22 06:05:07;;;;;;;40.83;17.92;;;;;;;;;;5069103;28;20049;-85
2021/12/22 06:07:33;;;;;;;41.88;17.88;;;;;;;;;;5068656;28;20048;-84
2021/12/22 06:09:59;;;;;;;44.28;17.83;;;;;;;;;;5068942;28;20561;-84
2021/12/22 06:12:25;;;;;;;41.13;17.17;;;;;;;;;;5068527;28;20130;-84
2021/12/22 06:14:51;;;;;;;40.85;18.20;;;;;;;;;;5052038;28;20048;-84
2021/12/22 06:17:17;;;;;;;41.65;17.33;;;;;;;;;;5068532;28;20033;-85
2021/12/22 06:19:44;;;;;;;43.63;17.90;;;;;;;;;;5068871;28;20041;-85
2021/12/22 06:22:10;;;;;;;42.55;17.98;;;;;;;;;;5068577;28;20037;-85
2021/12/22 06:24:36;;;;;;;42.35;17.92;;;;;;;;;;5069223;28;20044;-85
2021/12/22 06:27:02;;;;;;;40.95;17.55;;;;;;;;;;5052701;28;20044;-84
2021/12/22 06:29:28;;;;;;;39.15;18.42;;;;;;;;;;5051795;28;20047;-85
2021/12/22 06:31:54;;;;;;;42.33;17.95;;;;;;;;;;5068800;28;20388;-77
2021/12/22 06:34:20;;;;;;;46.35;18.02;;;;;;;;;;5071093;28;20037;-75
2021/12/22 06:36:47;;;;;;;40.80;17.45;;;;;;;;;;5070556;28;20442;-76
2021/12/22 06:39:14;;;;;;;40.63;17.88;;;;;;;;;;5054574;28;20052;-76
2021/12/22 06:41:40;;;;;;;43.63;17.65;;;;;;;;;;5072157;28;20032;-75
2021/12/22 06:44:06;;;;;;;42.22;17.00;;;;;;;;;;5071095;28;20036;-75
2021/12/22 06:46:32;;;;;;;42.50;17.02;;;;;;;;;;5037344;28;20044;-75
2021/12/22 06:48:59;;;;;;;44.40;17.42;;;;;;;;;;5069565;28;20049;-84
2021/12/22 06:51:25;;;;;;;43.55;17.50;;;;;;;;;;5036344;28;20050;-75
2021/12/22 06:53:51;;;;;;;38.38;15.38;;;;;;;;;;5070252;28;20048;-84
2021/12/22 06:56:17;;;;;;;42.47;17.58;;;;;;;;;;5051304;28;20040;-84
2021/12/22 06:58:43;;;;;;;36.13;16.70;;;;;;;;;;5068333;28;20056;-75
2021/12/22 07:01:16;;;;;;;36.83;15.98;;;;;;;;;;5070571;28;20052;-75
2021/12/22 07:03:43;;;;;;;38.78;17.52;;;;;;;;;;5070668;28;20045;-84
2021/12/22 07:06:09;;;;;;;45.35;19.70;;;;;;;;;;5068847;28;20048;-84
2021/12/22 07:08:35;;;;;;;41.15;16.90;;;;;;;;;;5102100;28;20392;-85
2021/12/22 07:11:01;;;;;;;39.10;17.70;;;;;;;;;;5068382;28;20075;-84
2021/12/22 07:13:27;;;;;;;40.45;17.05;;;;;;;;;;5068245;28;20123;-84
2021/12/22 07:15:53;;;;;;;45.10;17.73;;;;;;;;;;5053507;28;20052;-76
2021/12/22 07:18:19;;;;;;;40.33;15.75;;;;;;;;;;5070224;28;20049;-75
2021/12/22 07:20:45;;;;;;;38.53;16.35;;;;;;;;;;5070694;28;20036;-75
2021/12/22 07:23:11;;;;;;;39.00;16.10;;;;;;;;;;5068201;28;20123;-84
2021/12/22 07:25:38;;;;;;;37.70;14.43;;;;;;;;;;5068259;28;20048;-85
2021/12/22 07:28:04;;;;;;;37.95;16.38;;;;;;;;;;5067839;28;20075;-84
2021/12/22 07:30:30;;;;;;;38.55;16.10;;;;;;;;;;5067532;28;20234;-84
2021/12/22 07:32:57;;;;;;;37.47;16.50;;;;;;;;;;5051848;28;20051;-75
2021/12/22 07:35:33;;;;;;;40.88;17.98;;;;;;;;;;5052979;28;20047;-84
2021/12/22 07:38:18;;;;;;;41.30;16.90;;;;;;;;;;5069620;28;20052;-75
2021/12/22 07:40:44;;;;;;;40.15;16.80;;;;;;;;;;5070437;28;20113;-75
2021/12/22 07:43:10;;;;;;;40.67;16.55;;;;;;;;;;5070090;28;20047;-74
2021/12/22 07:45:36;;;;;;;42.63;16.80;;;;;;;;;;5069685;28;20051;-84
2021/12/22 07:48:02;;;;;;;38.58;17.00;;;;;;;;;;5051743;28;20191;-84
2021/12/22 07:50:28;;;;;;;47.53;17.40;;;;;;;;;;5071183;28;20040;-84
2021/12/22 07:52:54;;;;;;;37.65;16.10;;;;;;;;;;5071558;28;20522;-84
2021/12/22 07:55:21;;;;;;;38.88;16.80;;;;;;;;;;5070870;28;20048;-84
2021/12/22 07:57:47;;;;;;;37.72;16.30;;;;;;;;;;5071473;28;20075;-84
2021/12/22 08:00:13;;;;;;;38.80;17.17;;;;;;;;;;5071654;28;20063;-84
2021/12/22 08:02:40;;;;;;;38.50;15.35;;;;;;;;;;5074311;28;20044;-75
2021/12/22 08:05:06;;;;;;;38.05;15.43;;;;;;;;;;5057321;28;20048;-75
2021/12/22 08:07:32;;;;;;;39.25;16.52;;;;;;;;;;5073316;28;20110;-75
2021/12/22 08:09:59;;;;;;;43.20;17.02;;;;;;;;;;5073587;28;20056;-75
2021/12/22 08:12:25;;;;;;;36.58;15.77;;;;;;;;;;5073665;28;20056;-75
2021/12/22 08:14:51;;;;;;;36.67;15.98;;;;;;;;;;5057015;28;20516;-75
2021/12/22 08:17:17;;;;;;;41.75;16.42;;;;;;;;;;5074449;28;20040;-76
2021/12/22 08:19:45;;;;;;;37.35;17.05;;;;;;;;;;5072989;28;20047;-84
2021/12/22 08:22:11;;;;;;;42.47;17.58;;;;;;;;;;5071964;28;20482;-76
2021/12/22 08:24:37;;;;;;;34.80;16.05;;;;;;;;;;5056526;28;20044;-84
2021/12/22 08:27:04;;;;;;;39.83;16.58;;;;;;;;;;5054495;28;20036;-84
2021/12/22 08:29:30;;;;;;;37.88;16.85;;;;;;;;;;5070821;28;20396;-85
2021/12/22 08:31:56;;;;;;;36.65;15.93;;;;;;;;;;5070766;28;20044;-85
2021/12/22 08:34:27;;;;;;;39.10;15.65;;;;;;;;;;5104993;28;20086;-84
2021/12/22 08:39:38;;;;;;;38.92;15.65;;;;;;;;;;5070940;28;20373;-84
2021/12/22 08:42:05;;;;;;;38.28;15.15;;;;;;;;;;5070326;28;20052;-84
2021/12/22 08:44:33;;;;;;;36.90;14.25;;;;;;;;;;5055669;28;20067;-75
2021/12/22 08:46:59;;;;;;;36.90;14.95;;;;;;;;;;5072805;28;20047;-75
2021/12/22 08:49:25;;;;;;;33.08;14.20;;;;;;;;;;5070877;28;20037;-84
2021/12/22 08:51:51;;;;;;;32.25;14.00;;;;;;;;;;5070557;28;20041;-85
2021/12/22 08:54:18;;;;;;;33.40;13.70;;;;;;;;;;5072842;28;20036;-84
2021/12/22 08:56:45;;;;;;;33.13;14.38;;;;;;;;;;5071947;28;20045;-85
2021/12/22 08:59:11;;;;;;;36.75;16.52;;;;;;;;;;5055460;28;20095;-76
2021/12/22 09:01:38;;;;;;;35.00;15.25;;;;;;;;;;5072154;28;20048;-74
2021/12/22 09:04:04;;;;;;;34.20;15.43;;;;;;;;;;5072255;28;20418;-75
2021/12/22 09:06:30;;;;;;;34.30;14.52;;;;;;;;;;5073567;28;20076;-75
2021/12/22 09:08:58;;;;;;;34.60;14.52;;;;;;;;;;5072214;28;20090;-75
2021/12/22 09:11:24;;;;;;;33.40;13.63;;;;;;;;;;5055321;28;20048;-76
2021/12/22 09:13:50;;;;;;;36.65;14.23;;;;;;;;;;5072599;28;20036;-76
2021/12/22 09:16:16;;;;;;;29.80;14.18;;;;;;;;;;5071862;28;20378;-75
2021/12/22 09:18:43;;;;;;;28.52;12.65;;;;;;;;;;5073140;28;20040;-75
2021/12/22 09:21:10;;;;;;;32.50;14.70;;;;;;;;;;5055422;28;20036;-75
2021/12/22 09:23:37;;;;;;;29.63;13.75;;;;;;;;;;5055098;28;20036;-76
2021/12/22 09:26:03;;;;;;;31.55;13.52;;;;;;;;;;5055273;28;20098;-75
2021/12/22 09:28:29;;;;;;;28.73;12.57;;;;;;;;;;5071508;28;20048;-75
2021/12/22 09:30:56;;;;;;;25.83;12.38;;;;;;;;;;5071516;28;20040;-75
2021/12/22 09:33:23;;;;;;;25.92;12.57;;;;;;;;;;5071766;28;20494;-76
2021/12/22 09:35:50;;;;;;;32.38;13.40;;;;;;;;;;5071162;28;20084;-85
2021/12/22 09:38:16;;;;;;;29.77;13.77;;;;;;;;;;5053034;28;20496;-85
2021/12/22 09:40:52;;;;;;;29.13;13.68;;;;;;;;;;5070800;28;20044;-85
2021/12/22 09:43:18;;;;;;;;;;;;;;;;;;5087021;28;20046;-85
2021/12/22 09:45:49;;;;;;;22.30;11.82;;;;;;;;;;5069085;28;19947;-85
2021/12/22 09:48:28;;;;;;;25.65;12.80;;;;;;;;;;5068946;28;20064;-84
2021/12/22 09:52:16;;;;;;;25.23;12.38;;;;;;;;;;5069386;28;20080;-85
2021/12/22 09:53:45;;;;;;;25.17;12.65;;;;;;;;;;5069560;28;20430;-85
2021/12/22 09:56:17;;;;;;;26.13;12.98;;;;;;;;;;5069537;28;20554;-75
2021/12/22 09:58:45;;;;;;;28.02;12.23;;;;;;;;;;5070984;28;20053;-76
2021/12/22 10:01:12;;;;;;;22.58;11.80;;;;;;;;;;5070603;28;20094;-76
2021/12/22 10:03:38;;;;;;;23.23;12.27;;;;;;;;;;5054302;28;20063;-76
2021/12/22 10:06:04;;;;;;;25.17;12.85;;;;;;;;;;5070872;28;20052;-76
2021/12/22 10:08:31;;;;;;;22.83;11.85;;;;;;;;;;5069034;28;20036;-85
2021/12/22 10:11:02;;;;;;;22.20;11.85;;;;;;;;;;5068233;28;20091;-85
2021/12/22 10:13:29;;;;;;;22.20;12.15;;;;;;;;;;5070042;28;20454;-84
2021/12/22 10:15:56;;;;;;;25.85;12.90;;;;;;;;;;5069368;28;20048;-84
2021/12/22 10:18:23;;;;;;;23.95;12.40;;;;;;;;;;5054722;28;20522;-84
2021/12/22 10:20:51;;;;;;;25.33;13.00;;;;;;;;;;5054659;28;20041;-84
2021/12/22 10:23:27;;;;;;;23.42;12.30;;;;;;;;;;5105354;28;20496;-84
2021/12/22 10:25:54;;;;;;;23.48;11.90;;;;;;;;;;5072107;28;20045;-84
2021/12/22 10:28:21;;;;;;;23.27;12.05;;;;;;;;;;5069862;28;20036;-84
2021/12/22 10:30:48;;;;;;;25.45;12.65;;;;;;;;;;5069101;28;20059;-84
2021/12/22 10:33:15;;;;;;;26.05;11.93;;;;;;;;;;5069709;28;20086;-84
2021/12/22 10:35:42;;;;;;;24.30;12.38;;;;;;;;;;5068322;28;20070;-84
2021/12/22 10:38:09;;;;;;;24.40;12.35;;;;;;;;;;5070309;28;20044;-84
2021/12/22 10:40:38;;;;;;;24.85;12.10;;;;;;;;;;5068574;28;20044;-84
2021/12/22 10:43:05;;;;;;;22.80;12.50;;;;;;;;;;5069192;28;20588;-84
2021/12/22 10:45:34;;;;;;;26.67;12.82;;;;;;;;;;5068240;28;20131;-84
2021/12/22 10:50:46;;;;;;;25.55;12.98;;;;;;;;;;5054858;28;20111;-84
2021/12/22 10:53:15;;;;;;;23.50;13.15;;;;;;;;;;5052344;28;20086;-76
2021/12/22 10:55:46;;;;;;;25.75;13.02;;;;;;;;;;5053179;28;20090;-75
2021/12/22 10:58:18;;;;;;;23.05;11.75;;;;;;;;;;5069527;28;20053;-75
2021/12/22 11:00:44;;;;;;;28.10;13.20;;;;;;;;;;5069769;28;20095;-75
2021/12/22 11:03:15;;;;;;;26.35;13.10;;;;;;;;;;5069964;28;20392;-75
2021/12/22 11:05:52;;;;;;;23.48;11.98;;;;;;;;;;5069925;28;20048;-76
2021/12/22 11:08:25;;;;;;;24.60;12.38;;;;;;;;;;5070825;28;20070;-76
2021/12/22 11:10:52;;;;;;;26.77;12.25;;;;;;;;;;5069947;28;20048;-76
2021/12/22 11:13:19;;;;;;;23.80;12.27;;;;;;;;;;5052400;28;20040;-75
2021/12/22 11:15:45;;;;;;;26.90;12.48;;;;;;;;;;5069512;28;20144;-76
2021/12/22 11:18:30;;;;;;;27.00;12.05;;;;;;;;;;5053200;28;20388;-75
2021/12/22 11:21:17;;;;;;;22.05;11.25;;;;;;;;;;5069652;28;20480;-75
2021/12/22 11:23:43;;;;;;;27.70;12.55;;;;;;;;;;5071106;28;20068;-76
2021/12/22 11:26:11;;;;;;;28.90;12.52;;;;;;;;;;5072565;28;20110;-84
2021/12/22 11:28:38;;;;;;;22.95;12.13;;;;;;;;;;5055775;28;20044;-84
2021/12/22 11:31:05;;;;;;;26.80;13.02;;;;;;;;;;5071867;28;20048;-84
2021/12/22 11:33:32;;;;;;;27.92;14.23;;;;;;;;;;5073137;28;20041;-83
2021/12/22 11:35:58;;;;;;;24.70;11.98;;;;;;;;;;5071741;28;20059;-82
2021/12/22 11:38:26;;;;;;;26.05;12.88;;;;;;;;;;5071808;28;20524;-83
2021/12/22 11:41:06;;;;;;;27.77;13.68;;;;;;;;;;5071564;28;20076;-83
2021/12/22 11:43:32;;;;;;;25.17;12.73;;;;;;;;;;5071717;28;20044;-83
2021/12/22 11:45:58;;;;;;;25.73;13.07;;;;;;;;;;5072027;28;20127;-82
2021/12/22 11:48:24;;;;;;;27.27;13.02;;;;;;;;;;5054914;28;20056;-83
2021/12/22 11:50:51;;;;;;;28.45;13.80;;;;;;;;;;5054879;28;20066;-83
2021/12/22 11:53:17;;;;;;;30.15;14.20;;;;;;;;;;5055170;28;20055;-75
2021/12/22 11:55:44;;;;;;;29.92;13.45;;;;;;;;;;5056199;28;20045;-75
2021/12/22 11:58:33;;;;;;;25.58;13.18;;;;;;;;;;5072538;28;20044;-74
2021/12/22 12:01:07;;;;;;;28.52;13.80;;;;;;;;;;5072781;28;20098;-75
2021/12/22 12:03:37;;;;;;;33.90;14.80;;;;;;;;;;5056009;28;20039;-74
2021/12/22 12:06:07;;;;;;;29.13;13.43;;;;;;;;;;5073991;28;20036;-75
2021/12/22 12:08:35;;;;;;;28.90;14.05;;;;;;;;;;5055580;28;20071;-74
2021/12/22 12:11:01;;;;;;;28.48;13.30;;;;;;;;;;5072661;28;20123;-83
2021/12/22 12:13:36;;;;;;;27.50;12.85;;;;;;;;;;5054292;28;20040;-83
2021/12/22 12:21:56;;;;;;;27.33;12.43;;;;;;;;;;5072770;28;20053;-83
2021/12/22 12:24:37;;;;;;;28.35;13.13;;;;;;;;;;5072145;28;20178;-82
2021/12/22 12:27:22;;;;;;;26.90;13.02;;;;;;;;;;5072760;28;20052;-83
2021/12/22 12:29:58;;;;;;;26.73;12.57;;;;;;;;;;5071116;28;20051;-82
2021/12/22 12:32:40;;;;;;;28.65;12.82;;;;;;;;;;5070488;28;20093;-82
2021/12/22 12:35:18;;;;;;;30.38;13.50;;;;;;;;;;5053979;28;20058;-83
2021/12/22 12:38:01;;;;;;;26.33;13.30;;;;;;;;;;5070910;28;20040;-83
2021/12/22 12:40:46;;;;;;;29.98;14.23;;;;;;;;;;5070599;28;20047;-82
2021/12/22 12:43:12;;;;;;;33.65;14.15;;;;;;;;;;5072709;28;20380;-82
2021/12/22 12:45:42;;;;;;;28.58;13.73;;;;;;;;;;5054304;28;20101;-82
2021/12/22 12:48:28;;;;;;;29.65;13.68;;;;;;;;;;5071061;28;20128;-82
2021/12/22 12:51:13;;;;;;;32.58;14.25;;;;;;;;;;5071390;28;20059;-76
2021/12/22 12:53:45;;;;;;;28.08;13.77;;;;;;;;;;5054850;28;20182;-76
2021/12/22 12:56:12;;;;;;;27.50;13.85;;;;;;;;;;5071779;28;20527;-75
2021/12/22 12:58:55;;;;;;;28.45;12.40;;;;;;;;;;5071561;28;20075;-75
2021/12/22 13:01:39;;;;;;;27.70;13.23;;;;;;;;;;5071724;28;20036;-75
2021/12/22 13:04:23;;;;;;;27.88;13.65;;;;;;;;;;5071900;28;20041;-75
2021/12/22 13:06:49;;;;;;;28.10;13.32;;;;;;;;;;5071843;28;20055;-75
2021/12/22 13:09:25;;;;;;;28.95;13.43;;;;;;;;;;5054798;28;20427;-75
2021/12/22 13:11:54;;;;;;;;;;;;;;;;;;5072105;28;20440;-75
2021/12/22 13:17:16;;;;;;;27.55;13.35;;;;;;;;;;5071352;28;20404;-75
2021/12/22 13:19:42;;;;;;;29.90;14.27;;;;;;;;;;5071097;28;20083;-75
2021/12/22 13:22:23;;;;;;;31.50;14.13;;;;;;;;;;5054083;28;20036;-81
2021/12/22 13:24:50;;;;;;;29.77;14.15;;;;;;;;;;5070639;28;20500;-81
2021/12/22 13:27:29;;;;;;;29.73;13.05;;;;;;;;;;5070769;28;20041;-75
2021/12/22 13:30:12;;;;;;;30.00;14.43;;;;;;;;;;5071178;28;20032;-74
2021/12/22 13:32:55;;;;;;;28.70;12.93;;;;;;;;;;5070736;28;20079;-75
2021/12/22 13:35:31;;;;;;;29.70;13.65;;;;;;;;;;5070822;28;20487;-76
2021/12/22 13:37:58;;;;;;;29.73;14.40;;;;;;;;;;5071471;28;20561;-75
2021/12/22 13:40:43;;;;;;;27.88;13.63;;;;;;;;;;5053790;28;20054;-81
2021/12/22 13:43:30;;;;;;;30.67;14.00;;;;;;;;;;5070433;28;20040;-81
2021/12/22 13:45:56;;;;;;;;;;;;;;;;;;5053313;28;20052;-81
2021/12/22 13:48:27;;;;;;;28.45;12.55;;;;;;;;;;5069300;28;19924;-81
2021/12/22 13:50:58;;;;;;;31.55;13.90;;;;;;;;;;5069742;28;20139;-81
2021/12/22 13:53:25;;;;;;;29.70;14.55;;;;;;;;;;5052060;28;20097;-81
2021/12/22 13:55:52;;;;;;;28.80;13.77;;;;;;;;;;5071175;28;20045;-81
2021/12/22 13:58:31;;;;;;;26.85;13.73;;;;;;;;;;5069562;28;20063;-81
2021/12/22 14:01:16;;;;;;;29.58;14.43;;;;;;;;;;5069881;28;20041;-80
2021/12/22 14:03:46;;;;;;;29.48;13.23;;;;;;;;;;5070276;28;20476;-81
2021/12/22 14:06:14;;;;;;;29.17;15.02;;;;;;;;;;5069688;28;20056;-81
2021/12/22 14:08:40;;;;;;;30.05;14.20;;;;;;;;;;5070218;28;20071;-81
2021/12/22 14:11:39;;;;;;;33.13;15.63;;;;;;;;;;5071666;28;20041;-82
2021/12/22 14:14:19;;;;;;;29.48;14.20;;;;;;;;;;5051018;28;20049;-81
2021/12/22 14:16:47;;;;;;;33.67;14.30;;;;;;;;;;5070137;28;20045;-75
2021/12/22 14:19:19;;;;;;;28.83;14.23;;;;;;;;;;5070854;28;20040;-75
2021/12/22 14:21:48;;;;;;;29.25;14.60;;;;;;;;;;5070558;28;20042;-75
2021/12/22 14:24:19;;;;;;;29.20;13.98;;;;;;;;;;5070263;28;20051;-75
2021/12/22 14:26:47;;;;;;;30.02;14.80;;;;;;;;;;5070453;28;20044;-75
2021/12/22 14:29:13;;;;;;;29.95;13.98;;;;;;;;;;5069416;28;20128;-80
2021/12/22 14:31:53;;;;;;;26.05;13.27;;;;;;;;;;5068667;28;20052;-81
2021/12/22 14:34:20;;;;;;;30.90;15.05;;;;;;;;;;5052140;28;20127;-80
2021/12/22 14:36:47;;;;;;;25.92;13.43;;;;;;;;;;5069139;28;20048;-80
2021/12/22 14:39:13;;;;;;;26.90;14.05;;;;;;;;;;5069436;28;20495;-81
2021/12/22 14:41:40;;;;;;;30.95;14.50;;;;;;;;;;5070165;28;20118;-80
2021/12/22 14:44:18;;;;;;;29.20;13.88;;;;;;;;;;5069153;28;20076;-81
2021/12/22 14:46:44;;;;;;;27.42;14.00;;;;;;;;;;5068786;28;20071;-76
2021/12/22 14:49:17;;;;;;;28.02;13.88;;;;;;;;;;5071311;28;20361;-76
2021/12/22 14:51:45;;;;;;;28.98;14.38;;;;;;;;;;5069159;28;20044;-80
2021/12/22 14:54:11;;;;;;;32.63;14.75;;;;;;;;;;5052081;28;20365;-80
2021/12/22 14:57:04;;;;;;;28.30;13.82;;;;;;;;;;5068158;28;20048;-80